createdAt,value
2023-07-12T00:01:19.780Z,52.85
2023-07-12T00:03:47.105Z,47.88
2023-07-12T00:06:17.657Z,43.22
2023-07-12T00:08:44.946Z,40.80
2023-07-12T00:11:20.565Z,45.13
2023-07-12T00:13:48.525Z,40.05
2023-07-12T00:16:22.747Z,46.67
2023-07-12T00:18:50.319Z,48.00
2023-07-12T00:21:26.578Z,45.17
2023-07-12T00:23:55.185Z,89.60
2023-07-12T00:26:26.215Z,45.00
2023-07-12T00:28:54.065Z,61.97
2023-07-12T00:31:21.889Z,60.65
2023-07-12T00:33:48.992Z,56.08
2023-07-12T00:36:24.619Z,45.95
2023-07-12T00:38:52.193Z,181.35
2023-07-12T00:41:50.810Z,37.75
2023-07-12T00:44:23.172Z,38.85
2023-07-12T00:46:53.503Z,187.25
2023-07-12T00:49:20.784Z,195.93
2023-07-12T00:52:13.336Z,259.02
2023-07-12T00:55:02.720Z,136.90
2023-07-12T00:57:31.751Z,118.47
2023-07-12T01:00:12.558Z,167.63
2023-07-12T01:05:09.892Z,183.18
2023-07-12T01:07:37.132Z,93.90
2023-07-12T01:10:04.494Z,190.75
2023-07-12T01:12:32.134Z,74.00
2023-07-12T01:14:59.099Z,54.63
2023-07-12T01:17:27.514Z,39.88
2023-07-12T01:19:54.465Z,24.92
2023-07-12T01:22:21.516Z,46.53
2023-07-12T01:24:48.607Z,47.15
2023-07-12T01:27:19.289Z,80.20
2023-07-12T01:29:47.643Z,25.85
2023-07-12T01:32:15.038Z,34.00
2023-07-12T01:34:46.234Z,22.15
2023-07-12T01:37:14.360Z,31.73
2023-07-12T01:39:41.672Z,33.38
2023-07-12T01:42:10.784Z,35.55
2023-07-12T01:44:37.917Z,31.20
2023-07-12T01:47:04.963Z,33.05
2023-07-12T01:49:33.833Z,38.05
2023-07-12T01:52:00.759Z,40.20
2023-07-12T01:54:27.683Z,37.22
2023-07-12T01:56:54.584Z,40.80
2023-07-12T01:59:21.579Z,35.72
2023-07-12T02:01:48.793Z,37.60
2023-07-12T02:04:15.724Z,31.30
2023-07-12T02:06:43.203Z,36.03
2023-07-12T02:09:10.167Z,35.15
2023-07-12T02:11:37.087Z,36.50
2023-07-12T02:14:04.468Z,38.80
2023-07-12T02:16:31.577Z,54.60
2023-07-12T02:18:58.456Z,41.42
2023-07-12T02:21:25.477Z,41.80
2023-07-12T02:23:54.223Z,46.78
2023-07-12T02:26:21.227Z,36.75
2023-07-12T02:28:48.272Z,35.30
2023-07-12T02:31:19.596Z,27.08
2023-07-12T02:33:47.806Z,24.92
2023-07-12T02:36:14.890Z,25.73
2023-07-12T02:38:41.895Z,28.10
2023-07-12T02:41:09.559Z,30.02
2023-07-12T02:43:36.810Z,31.02
2023-07-12T02:46:04.470Z,23.73
2023-07-12T02:48:31.545Z,26.77
2023-07-12T02:50:58.744Z,28.52
2023-07-12T02:53:25.668Z,30.52
2023-07-12T02:55:52.810Z,42.67
2023-07-12T02:58:19.900Z,176.27
2023-07-12T03:00:47.790Z,64.53
2023-07-12T03:03:15.321Z,30.95
2023-07-12T03:05:42.513Z,44.17
2023-07-12T03:08:09.571Z,36.60
2023-07-12T03:10:38.691Z,26.85
2023-07-12T03:13:05.909Z,21.35
2023-07-12T03:15:35.318Z,17.85
2023-07-12T03:18:02.572Z,14.93
2023-07-12T03:20:29.472Z,13.00
2023-07-12T03:22:56.431Z,12.02
2023-07-12T03:25:23.579Z,11.13
2023-07-12T03:27:51.952Z,10.32
2023-07-12T03:30:19.127Z,9.88
2023-07-12T03:32:46.174Z,9.65
2023-07-12T03:35:13.587Z,8.82
2023-07-12T03:37:40.573Z,8.20
2023-07-12T03:40:09.002Z,8.13
2023-07-12T03:42:35.981Z,10.82
2023-07-12T03:45:03.505Z,8.75
2023-07-12T03:47:30.769Z,7.78
2023-07-12T03:49:57.890Z,10.43
2023-07-12T03:52:24.801Z,8.15
2023-07-12T03:54:51.833Z,7.72
2023-07-12T03:57:18.714Z,7.53
2023-07-12T03:59:45.811Z,8.13
2023-07-12T04:02:12.916Z,8.77
2023-07-12T04:04:39.813Z,9.23
2023-07-12T04:07:07.105Z,11.57
2023-07-12T04:09:34.111Z,9.85
2023-07-12T04:12:01.051Z,9.55
2023-07-12T04:14:27.961Z,7.97
2023-07-12T04:16:55.160Z,8.45
2023-07-12T04:19:22.508Z,10.30
2023-07-12T04:21:52.735Z,8.52
2023-07-12T04:24:19.757Z,8.60
2023-07-12T04:26:49.907Z,9.88
2023-07-12T04:29:17.105Z,7.85
2023-07-12T04:31:44.064Z,7.63
2023-07-12T04:34:12.701Z,7.35
2023-07-12T04:36:41.203Z,7.18
2023-07-12T04:39:09.321Z,7.63
2023-07-12T04:41:36.331Z,7.68
2023-07-12T04:44:04.062Z,7.88
2023-07-12T04:46:31.735Z,7.28
2023-07-12T04:48:58.694Z,7.15
2023-07-12T04:51:25.676Z,7.40
2023-07-12T04:53:52.558Z,6.97
2023-07-12T04:56:19.653Z,7.93
2023-07-12T04:58:46.505Z,6.85
2023-07-12T05:01:14.657Z,6.50
2023-07-12T05:03:41.688Z,7.28
2023-07-12T05:06:21.750Z,7.95
2023-07-12T05:08:50.223Z,5.68
2023-07-12T05:11:17.194Z,5.60
2023-07-12T05:13:44.693Z,5.65
2023-07-12T05:16:15.075Z,6.43
2023-07-12T05:18:42.112Z,5.47
2023-07-12T05:21:10.297Z,5.35
2023-07-12T05:23:38.302Z,5.43
2023-07-12T05:26:05.343Z,6.65
2023-07-12T05:28:32.236Z,5.22
2023-07-12T05:30:59.299Z,5.82
2023-07-12T05:33:26.351Z,5.10
2023-07-12T05:35:53.295Z,4.95
2023-07-12T05:38:20.353Z,7.63
2023-07-12T05:40:47.320Z,5.85
2023-07-12T05:43:15.085Z,5.20
2023-07-12T05:45:43.796Z,7.03
2023-07-12T05:48:10.770Z,5.30
2023-07-12T05:50:37.986Z,5.07
2023-07-12T05:53:04.988Z,5.13
2023-07-12T05:55:32.696Z,7.55
2023-07-12T05:58:01.696Z,4.93
2023-07-12T06:00:29.977Z,4.50
2023-07-12T06:02:57.392Z,4.75
2023-07-12T06:05:24.562Z,9.18
2023-07-12T06:07:52.213Z,4.70
2023-07-12T06:10:19.528Z,7.03
2023-07-12T06:12:46.744Z,4.50
2023-07-12T06:15:13.798Z,7.20
2023-07-12T06:17:40.855Z,4.25
2023-07-12T06:20:09.203Z,5.78
2023-07-12T06:22:36.181Z,9.10
2023-07-12T06:25:03.215Z,5.25
2023-07-12T06:27:30.291Z,6.53
2023-07-12T06:29:57.292Z,4.40
2023-07-12T06:32:24.331Z,4.43
2023-07-12T06:34:51.197Z,6.35
2023-07-12T06:37:18.307Z,4.65
2023-07-12T06:39:45.179Z,4.15
2023-07-12T06:42:12.137Z,6.15
2023-07-12T06:44:39.824Z,5.63
2023-07-12T06:47:07.019Z,4.63
2023-07-12T06:49:34.022Z,3.50
2023-07-12T06:52:01.114Z,5.60
2023-07-12T06:54:28.078Z,7.30
2023-07-12T06:56:55.118Z,3.72
2023-07-12T06:59:22.939Z,4.45
2023-07-12T07:01:49.874Z,7.18
2023-07-12T07:04:17.216Z,6.00
2023-07-12T07:06:44.267Z,6.45
2023-07-12T07:09:11.743Z,5.22
2023-07-12T07:11:38.957Z,7.60
2023-07-12T07:14:06.000Z,4.90
2023-07-12T07:16:33.366Z,4.53
2023-07-12T07:19:00.588Z,6.95
2023-07-12T07:21:27.856Z,4.05
2023-07-12T07:23:54.903Z,7.38
2023-07-12T07:26:21.864Z,7.15
2023-07-12T07:28:49.000Z,4.22
2023-07-12T07:31:15.959Z,3.95
2023-07-12T07:33:43.180Z,5.57
2023-07-12T07:36:12.941Z,5.00
2023-07-12T07:38:40.026Z,4.72
2023-07-12T07:41:10.601Z,9.25
2023-07-12T07:43:38.251Z,3.70
2023-07-12T07:46:05.519Z,9.75
2023-07-12T07:48:32.537Z,3.40
2023-07-12T07:50:59.629Z,6.82
2023-07-12T07:53:26.485Z,5.00
2023-07-12T07:55:53.905Z,3.70
2023-07-12T07:58:22.082Z,3.83
2023-07-12T08:00:49.617Z,8.43
2023-07-12T08:03:16.739Z,6.05
2023-07-12T08:05:44.034Z,6.43
2023-07-12T08:08:10.970Z,4.47
2023-07-12T08:10:38.224Z,7.63
2023-07-12T08:13:05.562Z,5.50
2023-07-12T08:15:32.821Z,3.08
2023-07-12T08:17:59.865Z,9.18
2023-07-12T08:20:27.080Z,5.30
2023-07-12T08:22:54.169Z,5.72
2023-07-12T08:25:21.150Z,5.32
2023-07-12T08:27:48.137Z,4.82
2023-07-12T08:30:15.377Z,4.43
2023-07-12T08:32:42.414Z,5.65
2023-07-12T08:35:11.555Z,9.90
2023-07-12T08:37:39.120Z,4.32
2023-07-12T08:40:07.105Z,5.85
2023-07-12T08:42:40.636Z,4.75
2023-07-12T08:45:30.481Z,4.00
2023-07-12T08:48:01.758Z,10.38
2023-07-12T08:50:40.397Z,5.20
2023-07-12T08:53:12.361Z,3.20
2023-07-12T08:55:39.493Z,4.72
2023-07-12T08:58:34.382Z,2.85
2023-07-12T09:01:10.652Z,7.85
2023-07-12T09:03:37.833Z,2.80
2023-07-12T09:06:11.872Z,4.15
2023-07-12T09:08:41.132Z,6.50
2023-07-12T09:11:16.853Z,5.25
2023-07-12T09:13:47.411Z,9.13
2023-07-12T09:16:33.494Z,6.00
2023-07-12T09:19:12.670Z,6.15
2023-07-12T09:21:40.233Z,4.47
2023-07-12T09:24:15.438Z,5.10
2023-07-12T09:26:43.307Z,9.50
2023-07-12T09:29:29.645Z,5.82
2023-07-12T09:32:01.464Z,4.53
2023-07-12T09:34:36.984Z,2.60
2023-07-12T09:37:04.305Z,3.78
2023-07-12T09:39:31.304Z,3.15
2023-07-12T09:42:01.115Z,4.93
2023-07-12T09:44:28.833Z,5.75
2023-07-12T09:47:26.479Z,6.43
2023-07-12T09:50:01.617Z,4.00
2023-07-12T09:52:35.467Z,3.28
2023-07-12T09:55:13.164Z,3.97
2023-07-12T09:58:19.987Z,5.03
2023-07-12T10:01:04.523Z,4.00
2023-07-12T10:03:52.382Z,3.45
2023-07-12T10:06:34.102Z,5.90
2023-07-12T10:09:11.813Z,11.55
2023-07-12T10:12:07.382Z,4.38
2023-07-12T10:14:37.168Z,5.53
2023-07-12T10:17:04.617Z,4.43
2023-07-12T10:19:34.751Z,4.43
2023-07-12T10:22:04.437Z,4.03
2023-07-12T10:24:43.745Z,5.53
2023-07-12T10:27:33.000Z,6.05
2023-07-12T10:30:05.601Z,5.95
2023-07-12T10:32:38.029Z,2.90
2023-07-12T10:35:44.965Z,7.90
2023-07-12T10:38:19.840Z,3.78
2023-07-12T10:41:08.692Z,5.43
2023-07-12T10:43:46.079Z,4.82
2023-07-12T10:46:31.857Z,3.35
2023-07-12T10:48:59.342Z,10.88
2023-07-12T10:51:36.593Z,2.95
2023-07-12T10:54:05.059Z,3.65
2023-07-12T10:56:38.803Z,4.07
2023-07-12T10:59:39.922Z,2.53
2023-07-12T11:02:33.316Z,2.93
2023-07-12T11:05:00.633Z,6.35
2023-07-12T11:07:30.731Z,4.90
2023-07-12T11:10:16.936Z,3.20
2023-07-12T11:12:51.034Z,4.00
2023-07-12T11:15:24.266Z,5.80
2023-07-12T11:18:26.889Z,3.50
2023-07-12T11:21:01.129Z,3.20
2023-07-12T11:23:50.281Z,3.65
2023-07-12T11:26:28.164Z,2.95
2023-07-12T11:29:29.224Z,5.25
2023-07-12T11:32:22.269Z,3.60
2023-07-12T11:34:49.783Z,3.10
2023-07-12T11:37:22.918Z,2.90
2023-07-12T11:39:49.959Z,6.32
2023-07-12T11:42:28.881Z,4.47
2023-07-12T11:45:06.735Z,17.55
2023-07-12T11:47:34.537Z,3.95
2023-07-12T11:50:02.128Z,5.68
2023-07-12T11:52:29.544Z,5.65
2023-07-12T11:54:56.534Z,12.20
2023-07-12T11:57:23.580Z,5.22
2023-07-12T11:59:53.585Z,6.70
2023-07-12T12:02:22.650Z,3.65
2023-07-12T12:04:57.758Z,8.50
2023-07-12T12:07:37.870Z,7.05
2023-07-12T12:10:06.937Z,11.18
2023-07-12T12:12:34.785Z,11.25
2023-07-12T12:15:02.460Z,6.13
2023-07-12T12:17:37.267Z,4.22
2023-07-12T12:20:15.468Z,3.85
2023-07-12T12:22:46.075Z,5.45
2023-07-12T12:25:21.736Z,4.10
2023-07-12T12:27:50.110Z,7.15
2023-07-12T12:30:27.897Z,8.07
2023-07-12T12:33:06.684Z,5.30
2023-07-12T12:35:47.551Z,7.60
2023-07-12T12:38:24.499Z,7.83
2023-07-12T12:40:57.618Z,4.32
2023-07-12T12:43:25.822Z,3.97
2023-07-12T12:46:06.466Z,5.22
2023-07-12T12:53:48.367Z,9.63
2023-07-12T13:01:16.229Z,7.45
2023-07-12T13:06:38.460Z,4.93
2023-07-12T13:12:52.978Z,10.68
2023-07-12T13:17:53.406Z,18.42
2023-07-12T13:19:53.153Z,11.18
2023-07-12T13:22:24.031Z,22.20
2023-07-12T13:24:55.945Z,11.75
2023-07-12T13:27:38.443Z,6.75
2023-07-12T13:30:12.453Z,11.55
2023-07-12T13:32:40.127Z,9.48
2023-07-12T13:37:43.062Z,9.63
2023-07-12T13:40:20.383Z,11.77
2023-07-12T13:42:57.727Z,14.95
2023-07-12T13:45:26.045Z,14.07
2023-07-12T13:47:54.143Z,8.57
2023-07-12T13:50:22.237Z,8.65
2023-07-12T13:52:49.235Z,9.88
2023-07-12T13:55:19.193Z,9.93
2023-07-12T13:57:47.870Z,7.30
2023-07-12T14:00:23.602Z,7.22
2023-07-12T14:03:05.783Z,8.10
2023-07-12T14:10:34.603Z,6.43
2023-07-12T14:13:01.520Z,6.20
2023-07-12T14:15:28.662Z,7.53
2023-07-12T14:17:56.725Z,7.22
2023-07-12T14:20:25.044Z,8.00
2023-07-12T14:22:52.052Z,6.50
2023-07-12T14:25:21.125Z,7.00
2023-07-12T14:27:50.031Z,6.78
2023-07-12T14:32:49.758Z,6.60
2023-07-12T14:35:20.322Z,7.30
2023-07-12T14:37:47.513Z,7.40
2023-07-12T14:40:16.633Z,6.90
2023-07-12T14:42:43.966Z,6.50
2023-07-12T14:45:16.217Z,6.88
2023-07-12T14:47:43.586Z,8.65
2023-07-12T14:50:13.662Z,6.85
2023-07-12T14:52:41.105Z,9.90
2023-07-12T14:55:13.910Z,12.57
2023-07-12T14:58:08.546Z,8.20
2023-07-12T15:00:28.702Z,7.82
2023-07-12T15:02:58.651Z,11.52
2023-07-12T15:05:28.119Z,7.80
2023-07-12T15:07:55.211Z,11.20
2023-07-12T15:10:22.295Z,7.78
2023-07-12T15:13:00.140Z,9.10
2023-07-12T15:15:30.111Z,7.60
2023-07-12T15:18:20.857Z,8.90
2023-07-12T15:20:51.184Z,9.52
2023-07-12T15:23:21.018Z,9.38
2023-07-12T15:25:48.682Z,8.23
2023-07-12T15:28:16.975Z,8.48
2023-07-12T15:30:48.246Z,10.05
2023-07-12T15:33:21.746Z,9.27
2023-07-12T15:35:50.708Z,9.20
2023-07-12T15:38:18.079Z,9.18
2023-07-12T15:40:57.302Z,9.23
2023-07-12T15:43:36.056Z,8.25
2023-07-12T15:46:04.728Z,8.90
2023-07-12T15:48:34.242Z,8.95
2023-07-12T15:51:20.136Z,9.43
2023-07-12T15:53:50.962Z,10.98
2023-07-12T15:56:20.635Z,8.98
2023-07-12T15:58:48.215Z,8.80
2023-07-12T16:01:22.904Z,9.13
2023-07-12T16:03:50.640Z,8.93
2023-07-12T16:06:18.059Z,8.50
2023-07-12T16:08:45.039Z,9.15
2023-07-12T16:11:37.228Z,8.32
2023-07-12T16:14:19.581Z,8.05
2023-07-12T16:16:46.789Z,7.68
2023-07-12T16:19:16.020Z,7.90
2023-07-12T16:21:43.115Z,8.10
2023-07-12T16:24:11.954Z,8.00
2023-07-12T16:26:40.039Z,7.35
2023-07-12T16:29:10.605Z,8.43
2023-07-12T16:31:47.019Z,7.88
2023-07-12T16:34:19.788Z,7.35
2023-07-12T16:36:48.868Z,7.65
2023-07-12T16:39:16.591Z,8.05
2023-07-12T16:41:44.370Z,8.02
2023-07-12T16:44:17.728Z,7.38
2023-07-12T16:46:45.941Z,8.23
2023-07-12T16:49:13.818Z,7.40
2023-07-12T16:52:01.514Z,8.18
2023-07-12T16:54:29.840Z,4.72
2023-07-12T16:56:57.003Z,4.85
2023-07-12T16:59:25.495Z,7.15
2023-07-12T17:01:53.778Z,6.10
2023-07-12T17:04:21.817Z,4.72
2023-07-12T17:06:48.755Z,5.63
2023-07-12T17:09:21.392Z,5.32
2023-07-12T17:11:49.059Z,4.50
2023-07-12T17:14:16.730Z,6.40
2023-07-12T17:16:44.390Z,4.47
2023-07-12T17:19:12.220Z,4.05
2023-07-12T17:21:39.317Z,4.75
2023-07-12T17:24:14.050Z,6.15
2023-07-12T17:26:41.948Z,2.95
2023-07-12T17:29:10.019Z,2.83
2023-07-12T17:31:39.694Z,2.40
2023-07-12T17:34:22.767Z,3.65
2023-07-12T17:36:50.354Z,4.15
2023-07-12T17:39:17.987Z,2.95
2023-07-12T17:41:45.676Z,3.65
2023-07-12T17:44:20.895Z,2.83
2023-07-12T17:46:50.370Z,3.13
2023-07-12T17:49:17.309Z,4.68
2023-07-12T17:51:44.503Z,3.45
2023-07-12T17:54:12.710Z,3.42
2023-07-12T17:56:39.916Z,3.58
2023-07-12T17:59:06.897Z,5.95
2023-07-12T18:01:34.180Z,4.65
2023-07-12T18:04:01.838Z,3.75
2023-07-12T18:06:30.584Z,4.53
2023-07-12T18:08:57.665Z,4.63
2023-07-12T18:11:31.355Z,5.18
2023-07-12T18:14:01.100Z,3.72
2023-07-12T18:16:30.118Z,3.30
2023-07-12T18:18:57.439Z,3.03
2023-07-12T18:21:34.263Z,3.15
2023-07-12T18:24:03.291Z,5.60
2023-07-12T18:26:30.793Z,3.20
2023-07-12T18:28:58.282Z,7.45
2023-07-12T18:31:34.771Z,3.60
2023-07-12T18:34:03.313Z,3.42
2023-07-12T18:36:34.276Z,5.88
2023-07-12T18:39:06.333Z,2.67
2023-07-12T18:41:33.591Z,2.97
2023-07-12T18:44:00.773Z,3.22
2023-07-12T18:46:27.866Z,2.90
2023-07-12T18:48:55.078Z,3.60
2023-07-12T18:51:28.413Z,4.68
2023-07-12T18:53:55.550Z,6.10
2023-07-12T18:56:26.382Z,4.60
2023-07-12T18:58:54.523Z,4.83
2023-07-12T19:01:27.099Z,4.95
2023-07-12T19:03:54.193Z,4.25
2023-07-12T19:06:24.831Z,7.40
2023-07-12T19:08:52.043Z,3.55
2023-07-12T19:11:30.665Z,3.38
2023-07-12T19:13:57.697Z,4.25
2023-07-12T19:16:25.079Z,3.72
2023-07-12T19:18:52.394Z,4.00
2023-07-12T19:21:25.428Z,7.10
2023-07-12T19:23:53.607Z,8.05
2023-07-12T19:26:21.924Z,5.35
2023-07-12T19:28:49.107Z,4.05
2023-07-12T19:31:39.221Z,4.07
2023-07-12T19:34:11.906Z,5.85
2023-07-12T19:36:41.991Z,7.47
2023-07-12T19:39:11.148Z,4.63
2023-07-12T19:41:38.472Z,5.65
2023-07-12T19:44:08.652Z,4.13
2023-07-12T19:46:36.639Z,4.28
2023-07-12T19:49:07.915Z,2.80
2023-07-12T19:51:38.970Z,5.18
2023-07-12T19:54:15.756Z,4.38
2023-07-12T19:56:44.360Z,3.95
2023-07-12T19:59:11.642Z,5.30
2023-07-12T20:01:39.588Z,3.40
2023-07-12T20:04:09.654Z,3.47
2023-07-12T20:06:36.729Z,5.57
2023-07-12T20:09:04.443Z,6.60
2023-07-12T20:11:31.468Z,3.53
2023-07-12T20:13:58.669Z,4.25
2023-07-12T20:16:28.517Z,4.03
2023-07-12T20:18:56.287Z,4.82
2023-07-12T20:21:23.970Z,8.07
2023-07-12T20:23:52.700Z,6.28
2023-07-12T20:26:22.811Z,5.53
2023-07-12T20:28:51.041Z,6.10
2023-07-12T20:31:19.500Z,5.07
2023-07-12T20:33:47.155Z,5.10
2023-07-12T20:36:15.485Z,11.05
2023-07-12T20:38:42.775Z,6.45
2023-07-12T20:41:10.259Z,5.90
2023-07-12T20:43:39.487Z,8.45
2023-07-12T20:46:08.230Z,5.28
2023-07-12T20:48:37.090Z,5.88
2023-07-12T20:51:11.365Z,7.50
2023-07-12T20:53:39.400Z,5.75
2023-07-12T20:56:06.312Z,9.85
2023-07-12T20:58:33.534Z,5.13
2023-07-12T21:01:12.477Z,6.18
2023-07-12T21:03:39.717Z,5.57
2023-07-12T21:06:06.945Z,7.13
2023-07-12T21:08:35.207Z,5.93
2023-07-12T21:11:03.508Z,5.88
2023-07-12T21:13:31.182Z,7.25
2023-07-12T21:16:02.097Z,9.20
2023-07-12T21:18:29.404Z,10.00
2023-07-12T21:20:56.834Z,6.93
2023-07-12T21:23:25.921Z,7.22
2023-07-12T21:25:53.151Z,8.90
2023-07-12T21:28:20.188Z,9.85
2023-07-12T21:30:49.803Z,11.27
2023-07-12T21:33:17.590Z,5.28
2023-07-12T21:35:53.612Z,6.93
2023-07-12T21:38:21.675Z,9.07
2023-07-12T21:40:49.041Z,5.93
2023-07-12T21:43:17.309Z,5.10
2023-07-12T21:45:44.441Z,8.20
2023-07-12T21:48:11.888Z,11.05
2023-07-12T21:50:41.253Z,11.10
2023-07-12T21:53:08.549Z,9.73
2023-07-12T21:55:35.558Z,9.75
2023-07-12T21:58:02.665Z,14.07
2023-07-12T22:00:29.855Z,11.23
2023-07-12T22:02:57.341Z,15.07
2023-07-12T22:05:24.839Z,13.43
2023-07-12T22:07:55.312Z,11.18
2023-07-12T22:10:27.013Z,8.20
2023-07-12T22:12:54.500Z,13.25
2023-07-12T22:15:22.298Z,10.65
2023-07-12T22:17:49.571Z,8.48
2023-07-12T22:20:19.481Z,6.70
2023-07-12T22:22:47.858Z,7.55
2023-07-12T22:25:18.363Z,8.43
2023-07-12T22:27:46.359Z,9.15
2023-07-12T22:30:32.531Z,6.97
2023-07-12T22:33:00.081Z,9.50
2023-07-12T22:35:28.187Z,5.20
2023-07-12T22:37:56.306Z,5.32
2023-07-12T22:40:24.035Z,5.80
2023-07-12T22:42:51.630Z,8.93
2023-07-12T22:45:19.192Z,7.35
2023-07-12T22:47:46.207Z,5.82
2023-07-12T22:50:14.131Z,5.47
2023-07-12T22:52:42.272Z,5.63
2023-07-12T22:55:10.359Z,6.07
2023-07-12T22:57:37.483Z,8.82
2023-07-12T23:00:05.668Z,8.02
2023-07-12T23:02:33.087Z,6.45
2023-07-12T23:05:00.131Z,5.78
2023-07-12T23:07:27.530Z,6.13
2023-07-12T23:09:55.015Z,6.38
2023-07-12T23:12:22.292Z,7.47
2023-07-12T23:14:49.524Z,7.78
2023-07-12T23:17:16.613Z,5.50
2023-07-12T23:19:43.766Z,6.65
2023-07-12T23:22:18.991Z,5.72
2023-07-12T23:24:47.587Z,5.43
2023-07-12T23:27:14.551Z,7.20
2023-07-12T23:29:44.335Z,5.40
2023-07-12T23:32:13.367Z,5.55
2023-07-12T23:34:40.505Z,6.30
2023-07-12T23:37:12.406Z,6.47
2023-07-12T23:39:40.384Z,7.13
2023-07-12T23:42:08.805Z,6.43
2023-07-12T23:44:35.979Z,8.23
2023-07-12T23:47:06.503Z,9.05
2023-07-12T23:49:34.100Z,4.65
2023-07-12T23:52:01.720Z,5.97
2023-07-12T23:54:30.076Z,8.50
2023-07-12T23:56:59.228Z,6.82
2023-07-12T23:59:27.286Z,6.93
